Time;durP1;ratioP1;P1;durP2;ratioP2;P2;SDS_P1;SDS_P2;PMS_P1;PMS_P2;Temp;Humidity;BMP_temperature;BMP_pressure;BME280_temperature;BME280_humidity;BME280_pressure;Samples;Min_cycle;Max_cycle;Signal;HPM_P1;HPM_P2
2022/04/10 00:04:11;;;;;;;4.87;3.83;;;3.70;99.90;;;;;;10221647;28;20592;-73
2022/04/10 00:09:13;;;;;;;8.80;4.53;;;3.70;99.90;;;;;;10226264;28;20697;-74
2022/04/10 00:14:14;;;;;;;8.50;5.70;;;3.70;99.90;;;;;;10222685;28;20227;-73
2022/04/10 00:19:15;;;;;;;9.50;5.50;;;3.60;99.90;;;;;;10218596;28;20238;-75
2022/04/10 00:24:15;;;;;;;8.73;4.87;;;3.60;99.90;;;;;;10217879;28;20319;-74
2022/04/10 00:29:16;;;;;;;9.13;4.90;;;3.50;99.90;;;;;;10218278;28;20230;-72
2022/04/10 00:34:17;;;;;;;5.43;4.40;;;3.40;99.90;;;;;;10217315;28;20257;-73
2022/04/10 00:39:17;;;;;;;11.77;5.30;;;3.40;99.90;;;;;;10223251;28;20227;-72
2022/04/10 00:44:20;;;;;;;6.67;4.30;;;3.40;99.90;;;;;;10229659;28;20216;-72
2022/04/10 00:49:21;;;;;;;8.10;4.30;;;3.40;99.90;;;;;;10220493;28;20318;-73
2022/04/10 00:54:30;;;;;;;7.03;4.30;;;3.40;99.90;;;;;;10220730;29;20212;-72
2022/04/10 00:59:33;;;;;;;6.33;4.83;;;3.30;99.90;;;;;;10223597;28;20228;-73
2022/04/10 01:04:36;;;;;;;7.60;5.00;;;3.30;99.90;;;;;;10221125;28;20648;-73
2022/04/10 01:09:37;;;;;;;7.40;4.60;;;3.30;99.90;;;;;;10231225;28;20232;-74
2022/04/10 01:14:40;;;;;;;7.80;4.60;;;3.30;99.90;;;;;;10219248;28;20218;-72
2022/04/10 01:19:42;;;;;;;6.03;4.53;;;3.20;99.90;;;;;;10219180;28;20220;-72
2022/04/10 01:24:43;;;;;;;9.27;4.63;;;3.20;99.90;;;;;;10225202;28;20305;-72
2022/04/10 01:29:44;;;;;;;6.97;4.20;;;3.20;99.90;;;;;;10225545;29;20216;-73
2022/04/10 01:34:46;;;;;;;7.37;4.97;;;3.10;99.90;;;;;;10222628;28;20246;-74
2022/04/10 01:39:47;;;;;;;7.67;4.63;;;3.10;99.90;;;;;;10216542;29;20224;-72
2022/04/10 01:44:47;;;;;;;5.93;4.50;;;3.10;99.90;;;;;;10232424;28;20572;-74
2022/04/10 01:49:49;;;;;;;6.80;4.87;;;3.00;99.90;;;;;;10223559;28;20224;-73
2022/04/10 01:54:49;;;;;;;7.40;4.77;;;3.00;99.90;;;;;;10218234;28;20640;-72
2022/04/10 01:59:50;;;;;;;7.90;5.20;;;3.00;99.90;;;;;;10231684;28;20273;-73
2022/04/10 02:04:51;;;;;;;6.27;4.33;;;3.00;99.90;;;;;;10209768;29;20221;-72
2022/04/10 02:09:52;;;;;;;7.13;4.23;;;3.00;99.90;;;;;;10221617;28;20247;-72
2022/04/10 02:14:53;;;;;;;8.70;4.43;;;2.90;99.90;;;;;;10231531;28;20243;-72
2022/04/10 02:19:53;;;;;;;6.67;4.93;;;2.90;99.90;;;;;;10223732;28;20375;-73
2022/04/10 02:24:54;;;;;;;10.00;5.20;;;2.80;99.90;;;;;;10226236;28;20224;-73
2022/04/10 02:29:55;;;;;;;9.90;4.90;;;2.80;99.90;;;;;;10220598;28;20231;-72
2022/04/10 02:34:55;;;;;;;6.43;4.50;;;2.80;99.90;;;;;;10231307;28;20265;-71
2022/04/10 02:39:56;;;;;;;7.03;4.30;;;2.70;99.90;;;;;;10225685;28;21133;-72
2022/04/10 02:44:57;;;;;;;7.23;4.83;;;2.70;99.90;;;;;;10224752;28;20374;-73
2022/04/10 02:49:58;;;;;;;7.17;4.43;;;2.60;99.90;;;;;;10228576;28;20603;-72
2022/04/10 02:54:58;;;;;;;6.57;4.80;;;2.60;99.90;;;;;;10223140;28;20208;-71
2022/04/10 02:59:59;;;;;;;7.50;4.70;;;2.50;99.90;;;;;;10222256;28;20639;-72
2022/04/10 03:05:00;;;;;;;6.30;4.73;;;2.50;99.90;;;;;;10229777;28;20274;-70
2022/04/10 03:10:00;;;;;;;6.83;5.00;;;2.40;99.90;;;;;;10223317;28;20231;-70
2022/04/10 03:15:02;;;;;;;10.30;5.90;;;2.40;99.90;;;;;;10228302;28;20302;-72
2022/04/10 03:20:03;;;;;;;8.07;5.00;;;2.30;99.90;;;;;;10220077;28;20255;-73
2022/04/10 03:25:04;;;;;;;7.17;5.27;;;2.30;99.90;;;;;;10228752;28;20705;-73
2022/04/10 03:30:05;;;;;;;5.73;4.87;;;2.30;99.90;;;;;;10214887;28;20224;-72
2022/04/10 03:35:06;;;;;;;5.63;4.80;;;2.30;99.90;;;;;;10227582;28;20182;-71
2022/04/10 03:40:07;;;;;;;8.00;5.50;;;2.20;99.90;;;;;;10220953;28;20192;-71
2022/04/10 03:45:09;;;;;;;9.67;5.57;;;2.20;99.90;;;;;;10230531;28;20275;-72
2022/04/10 03:50:10;;;;;;;7.00;5.47;;;2.20;99.90;;;;;;10220429;28;20216;-71
2022/04/10 03:55:10;;;;;;;10.13;5.60;;;2.10;99.90;;;;;;10228851;28;20627;-70
2022/04/10 04:00:12;;;;;;;7.70;5.63;;;2.10;99.90;;;;;;10225911;28;20599;-71
2022/04/10 04:05:13;;;;;;;8.43;5.50;;;2.10;99.90;;;;;;10226824;28;20279;-71
2022/04/10 04:10:14;;;;;;;7.37;6.10;;;2.00;99.90;;;;;;10225877;28;20580;-70
2022/04/10 04:15:14;;;;;;;7.47;5.90;;;2.00;99.90;;;;;;10222626;28;20553;-71
2022/04/10 04:20:15;;;;;;;5.97;5.37;;;2.10;99.90;;;;;;10223540;28;20192;-73
2022/04/10 04:25:15;;;;;;;6.90;5.90;;;2.00;99.90;;;;;;10219051;28;20191;-73
2022/04/10 04:30:16;;;;;;;9.17;6.63;;;2.10;99.90;;;;;;10225254;28;20569;-71
2022/04/10 04:35:17;;;;;;;11.33;7.97;;;2.10;99.90;;;;;;10229484;28;20305;-71
2022/04/10 04:40:17;;;;;;;7.57;6.10;;;2.10;99.90;;;;;;10223262;28;20241;-72
2022/04/10 04:45:18;;;;;;;10.40;6.20;;;2.00;99.90;;;;;;10229683;28;20285;-74
2022/04/10 04:50:19;;;;;;;8.30;6.70;;;2.10;99.90;;;;;;10223006;28;20259;-73
2022/04/10 04:55:20;;;;;;;8.57;6.27;;;2.10;99.90;;;;;;10230499;28;20187;-70
2022/04/10 05:00:21;;;;;;;7.97;6.17;;;2.20;99.90;;;;;;10217289;28;20620;-72
2022/04/10 05:05:21;;;;;;;21.60;11.23;;;2.30;99.90;;;;;;10226473;28;20190;-71
2022/04/10 05:10:22;;;;;;;42.50;21.37;;;2.40;99.90;;;;;;10220503;28;20212;-72
2022/04/10 05:15:22;;;;;;;21.10;14.43;;;2.60;99.90;;;;;;10217317;28;20192;-71
2022/04/10 05:20:23;;;;;;;11.37;9.63;;;2.90;99.90;;;;;;10219443;28;20303;-71
2022/04/10 05:25:24;;;;;;;7.97;6.47;;;3.10;99.90;;;;;;10219746;28;20655;-72
2022/04/10 05:30:24;;;;;;;7.73;5.40;;;3.40;99.90;;;;;;10220500;28;20306;-72
2022/04/10 05:35:28;;;;;;;7.97;5.67;;;3.70;99.90;;;;;;10217987;28;20690;-72
2022/04/10 05:40:29;;;;;;;6.20;4.70;;;4.00;99.90;;;;;;10219419;28;20220;-70
2022/04/10 05:45:29;;;;;;;7.47;4.43;;;4.10;99.90;;;;;;10229156;28;20233;-74
2022/04/10 05:50:30;;;;;;;8.27;4.67;;;4.20;99.90;;;;;;10232249;28;20228;-73
2022/04/10 05:55:33;;;;;;;6.93;4.17;;;4.20;99.90;;;;;;10225899;28;20219;-73
2022/04/10 06:00:34;;;;;;;8.87;4.50;;;4.30;99.90;;;;;;10236732;28;20219;-71
2022/04/10 06:05:35;;;;;;;6.20;3.93;;;4.30;99.90;;;;;;10222399;28;20219;-72
2022/04/10 06:10:35;;;;;;;5.97;4.20;;;4.40;99.90;;;;;;10229657;28;20929;-72
2022/04/10 06:15:37;;;;;;;6.27;4.00;;;4.50;99.90;;;;;;10225399;28;20240;-73
2022/04/10 06:20:38;;;;;;;8.40;4.37;;;4.50;99.90;;;;;;10226612;28;20219;-72
2022/04/10 06:25:40;;;;;;;7.67;4.43;;;4.60;99.90;;;;;;10215670;28;20315;-72
2022/04/10 06:30:40;;;;;;;12.13;5.23;;;4.60;99.90;;;;;;10224211;28;20239;-71
2022/04/10 06:35:41;;;;;;;9.23;4.80;;;4.60;99.90;;;;;;10227130;28;20230;-72
2022/04/10 06:40:42;;;;;;;5.93;4.43;;;4.60;99.90;;;;;;10222804;28;20735;-71
2022/04/10 06:45:42;;;;;;;6.10;4.70;;;4.70;99.90;;;;;;10229314;28;20306;-71
2022/04/10 06:50:43;;;;;;;6.77;4.53;;;4.70;99.90;;;;;;10228010;28;20235;-72
2022/04/10 06:55:43;;;;;;;8.43;4.43;;;4.70;99.90;;;;;;10221857;28;20221;-72
2022/04/10 07:00:44;;;;;;;5.67;4.60;;;4.70;99.90;;;;;;10221491;28;20305;-71
2022/04/10 07:05:44;;;;;;;8.70;5.10;;;4.80;99.90;;;;;;10229077;29;20224;-71
2022/04/10 07:10:48;;;;;;;5.37;4.40;;;4.90;99.90;;;;;;10220667;28;20240;-72
2022/04/10 07:15:50;;;;;;;9.27;4.90;;;4.90;99.90;;;;;;10222553;28;20730;-71
2022/04/10 07:20:54;;;;;;;6.97;4.60;;;5.00;99.90;;;;;;10227420;28;20219;-70
2022/04/10 07:25:54;;;;;;;5.57;4.40;;;5.20;99.90;;;;;;10196759;28;20224;-70
2022/04/10 07:30:55;;;;;;;5.83;4.53;;;5.40;99.90;;;;;;10221767;28;20228;-70
2022/04/10 07:35:56;;;;;;;9.13;4.90;;;5.60;99.90;;;;;;10220730;28;20883;-71
2022/04/10 07:40:56;;;;;;;5.33;4.47;;;5.70;99.90;;;;;;10228574;28;20215;-72
2022/04/10 07:51:16;;;;;;;8.67;5.07;;;5.70;99.90;;;;;;10222544;28;20232;-72
2022/04/10 07:56:17;;;;;;;6.67;5.23;;;5.90;99.90;;;;;;10227532;28;20219;-74
2022/04/10 08:01:17;;;;;;;8.00;5.37;;;6.10;99.90;;;;;;10224770;28;20248;-74
2022/04/10 08:06:19;;;;;;;6.00;4.50;;;6.70;99.90;;;;;;10219659;28;20640;-72
2022/04/10 08:11:19;;;;;;;5.97;3.97;;;8.60;99.90;;;;;;10218556;28;20236;-75
2022/04/10 08:16:20;;;;;;;7.40;4.60;;;10.30;99.90;;;;;;10229288;28;20686;-73
2022/04/10 08:21:21;;;;;;;4.97;4.03;;;10.90;99.90;;;;;;10225379;28;20221;-74
2022/04/10 08:26:22;;;;;;;5.50;3.60;;;12.60;99.90;;;;;;10220404;28;20226;-74
2022/04/10 08:31:23;;;;;;;6.53;3.90;;;15.50;93.60;;;;;;10221379;28;20606;-74
2022/04/10 08:36:24;;;;;;;4.77;4.07;;;17.70;75.00;;;;;;10221377;28;20226;-74
2022/04/10 08:41:31;;;;;;;7.57;4.87;;;17.50;64.70;;;;;;10221213;28;20223;-73
2022/04/10 08:46:36;;;;;;;6.67;4.00;;;16.40;67.60;;;;;;10230215;28;20217;-73
2022/04/10 08:51:38;;;;;;;5.17;3.43;;;15.70;72.20;;;;;;10217907;28;20230;-75
2022/04/10 08:56:41;;;;;;;5.63;2.90;;;18.00;64.60;;;;;;10218784;28;20224;-76
2022/04/10 09:01:46;;;;;;;5.37;3.13;;;18.80;57.80;;;;;;10215537;28;20222;-77
2022/04/10 09:07:02;;;;;;;7.33;3.20;;;16.70;60.40;;;;;;10208187;28;20235;-75
2022/04/10 09:12:04;;;;;;;6.33;3.07;;;15.10;69.60;;;;;;10226259;28;20814;-75
2022/04/10 09:17:24;;;;;;;6.17;3.27;;;13.90;72.10;;;;;;10218063;28;20321;-73
2022/04/10 09:22:37;;;;;;;7.67;3.97;;;12.70;78.20;;;;;;10218513;28;20223;-73
2022/04/10 09:27:43;;;;;;;5.37;3.20;;;12.60;82.10;;;;;;10253763;28;20219;-72
2022/04/10 09:32:48;;;;;;;6.80;3.80;;;12.40;83.20;;;;;;10217810;28;20738;-73
2022/04/10 09:37:53;;;;;;;6.80;4.10;;;11.80;86.30;;;;;;10216278;28;20222;-73
2022/04/10 09:42:58;;;;;;;6.93;4.30;;;11.00;89.70;;;;;;10199767;29;20353;-73
2022/04/10 09:48:19;;;;;;;8.47;4.33;;;10.60;91.80;;;;;;10217552;28;20228;-72
2022/04/10 09:53:21;;;;;;;7.70;3.97;;;10.50;93.30;;;;;;10206606;29;20601;-73
2022/04/10 09:58:22;;;;;;;6.83;4.47;;;11.00;92.50;;;;;;10219967;28;20739;-73
2022/04/10 10:03:36;;;;;;;5.93;3.80;;;12.20;90.80;;;;;;10217520;28;20231;-73
2022/04/10 10:08:38;;;;;;;6.73;3.77;;;12.90;88.30;;;;;;10227627;28;20277;-73
2022/04/10 10:13:40;;;;;;;7.40;3.93;;;13.20;86.60;;;;;;10216437;28;20259;-74
2022/04/10 10:18:43;;;;;;;4.97;3.37;;;16.00;79.50;;;;;;10231609;28;20231;-75
2022/04/10 10:23:51;;;;;;;4.20;3.27;;;21.00;58.50;;;;;;10224141;28;20215;-74
2022/04/10 10:29:25;;;;;;;4.70;3.47;;;23.90;47.20;;;;;;10199272;28;20234;-74
2022/04/10 10:34:28;;;;;;;4.87;3.20;;;25.20;41.20;;;;;;10226413;28;20231;-75
2022/04/10 10:39:31;;;;;;;5.03;3.37;;;25.30;39.60;;;;;;10222766;29;20598;-74
2022/04/10 10:44:31;;;;;;;5.63;3.20;;;24.70;39.20;;;;;;10233006;28;20254;-74
2022/04/10 10:49:46;;;;;;;5.13;3.30;;;21.00;44.90;;;;;;10222541;29;20748;-74
2022/04/10 10:54:58;;;;;;;5.20;3.47;;;18.20;52.50;;;;;;10226756;28;20365;-75
2022/04/10 11:00:18;;;;;;;4.57;3.37;;;19.10;51.90;;;;;;10213773;29;20223;-73
2022/04/10 11:05:24;;;;;;;5.43;3.43;;;20.90;47.60;;;;;;10224027;28;20745;-73
2022/04/10 11:10:28;;;;;;;6.77;3.90;;;19.30;49.60;;;;;;10226947;28;20728;-74
2022/04/10 11:15:34;;;;;;;5.60;4.00;;;17.80;54.50;;;;;;10232294;28;20265;-73
2022/04/10 11:20:55;;;;;;;4.80;3.63;;;16.10;58.00;;;;;;10222777;28;20223;-74
2022/04/10 11:26:02;;;;;;;8.67;4.63;;;14.80;62.40;;;;;;10225501;28;20231;-73
2022/04/10 11:31:03;;;;;;;6.27;4.00;;;14.20;66.20;;;;;;10233242;28;20230;-73
2022/04/10 11:36:03;;;;;;;6.43;4.27;;;13.80;68.80;;;;;;10216156;28;20691;-73
2022/04/10 11:41:09;;;;;;;4.63;3.90;;;13.30;71.20;;;;;;10218729;28;20356;-73
2022/04/10 11:46:10;;;;;;;8.63;4.77;;;12.70;75.40;;;;;;10218679;28;20672;-74
2022/04/10 11:51:11;;;;;;;6.80;4.17;;;12.60;77.40;;;;;;10218169;28;20266;-76
2022/04/10 11:56:12;;;;;;;8.13;4.60;;;12.50;77.90;;;;;;10225069;28;20247;-71
2022/04/10 12:01:17;;;;;;;6.70;4.77;;;12.60;78.50;;;;;;10221848;28;20285;-70
2022/04/10 12:06:20;;;;;;;7.33;4.50;;;12.60;78.40;;;;;;10216834;28;20269;-71
2022/04/10 12:11:20;;;;;;;6.67;4.10;;;12.80;78.80;;;;;;10231048;28;20240;-70
2022/04/10 12:16:24;;;;;;;7.23;4.37;;;13.40;76.60;;;;;;10227900;28;20774;-71
2022/04/10 12:21:24;;;;;;;5.40;3.83;;;13.60;76.40;;;;;;10207395;28;20280;-71
2022/04/10 12:26:26;;;;;;;9.13;4.20;;;13.50;73.50;;;;;;10212229;28;20255;-72
2022/04/10 12:31:28;;;;;;;5.30;3.23;;;13.30;76.80;;;;;;10223843;28;20224;-71
2022/04/10 12:36:28;;;;;;;6.07;3.67;;;13.00;72.50;;;;;;10227934;28;20731;-72
2022/04/10 12:41:31;;;;;;;6.07;4.50;;;12.50;74.80;;;;;;10221145;28;20362;-72
2022/04/10 12:46:39;;;;;;;8.13;4.93;;;12.30;77.70;;;;;;10223776;28;20597;-71
2022/04/10 12:51:49;;;;;;;8.87;6.20;;;12.10;82.30;;;;;;10216445;28;20219;-72
2022/04/10 12:56:53;;;;;;;8.97;5.73;;;12.00;82.00;;;;;;10218137;28;20289;-71
2022/04/10 13:01:54;;;;;;;6.87;5.33;;;11.90;84.40;;;;;;10205325;28;20699;-72
2022/04/10 13:06:54;;;;;;;8.93;5.07;;;12.00;82.80;;;;;;10219559;28;20227;-71
2022/04/10 13:11:58;;;;;;;7.03;4.67;;;12.10;82.40;;;;;;10212738;28;20232;-71
2022/04/10 13:17:06;;;;;;;7.93;5.10;;;12.30;77.90;;;;;;10218278;28;20729;-71
2022/04/10 13:22:07;;;;;;;10.33;4.80;;;12.40;77.70;;;;;;10217485;28;20310;-71
2022/04/10 13:27:09;;;;;;;8.43;5.50;;;12.70;79.20;;;;;;10224311;28;20325;-72
2022/04/10 13:32:10;;;;;;;7.07;4.90;;;13.40;77.50;;;;;;10219694;28;20236;-71
2022/04/10 13:37:11;;;;;;;8.23;3.37;;;13.60;75.30;;;;;;10223741;28;20223;-71
2022/04/10 13:42:11;;;;;;;3.87;2.77;;;13.30;72.10;;;;;;10225068;28;20313;-71
2022/04/10 13:47:12;;;;;;;6.00;3.00;;;12.90;70.30;;;;;;10220043;28;20231;-72
2022/04/10 13:52:13;;;;;;;2.70;2.50;;;12.80;71.50;;;;;;10220723;28;20886;-71
2022/04/10 13:57:14;;;;;;;3.57;2.70;;;12.80;71.50;;;;;;10226956;28;20320;-71
2022/04/10 14:02:15;;;;;;;3.87;2.70;;;12.80;72.60;;;;;;10223851;28;20235;-71
2022/04/10 14:07:16;;;;;;;3.40;2.30;;;12.70;72.10;;;;;;10233958;28;20242;-72
2022/04/10 14:12:17;;;;;;;5.10;2.47;;;12.30;74.40;;;;;;10222988;28;20231;-72
2022/04/10 14:17:17;;;;;;;3.30;2.60;;;12.00;69.90;;;;;;10233491;28;20227;-71
2022/04/10 14:22:18;;;;;;;4.33;2.67;;;12.10;74.80;;;;;;10227613;28;20223;-74
2022/04/10 14:27:19;;;;;;;5.40;2.67;;;12.40;70.80;;;;;;10226200;28;20248;-72
2022/04/10 14:32:21;;;;;;;4.13;2.90;;;12.40;71.30;;;;;;10235309;28;20246;-73
2022/04/10 14:37:21;;;;;;;3.93;3.07;;;12.50;77.40;;;;;;10228209;28;20223;-72
2022/04/10 14:42:22;;;;;;;7.17;3.63;;;12.50;77.60;;;;;;10217562;28;20219;-72
2022/04/10 14:47:22;;;;;;;4.07;3.13;;;12.60;77.70;;;;;;10232239;28;20639;-72
2022/04/10 14:52:23;;;;;;;5.87;3.80;;;12.40;80.40;;;;;;10236415;28;20236;-71
2022/04/10 14:57:27;;;;;;;6.87;4.10;;;12.20;82.90;;;;;;10228577;28;20819;-72
2022/04/10 15:02:30;;;;;;;4.63;3.90;;;11.90;83.10;;;;;;10232212;28;20223;-72
2022/04/10 15:07:32;;;;;;;6.87;3.70;;;11.70;85.30;;;;;;10227517;28;20224;-72
2022/04/10 15:12:33;;;;;;;5.17;3.60;;;11.70;85.50;;;;;;10228983;28;20235;-71
2022/04/10 15:17:33;;;;;;;7.43;3.30;;;12.00;85.20;;;;;;10216502;28;20224;-72
2022/04/10 15:22:35;;;;;;;4.77;3.30;;;12.40;82.00;;;;;;10224941;28;20227;-71
2022/04/10 15:27:39;;;;;;;5.17;3.20;;;12.40;81.20;;;;;;10222964;28;20318;-70
2022/04/10 15:32:40;;;;;;;5.73;3.33;;;12.40;83.60;;;;;;10227110;28;20227;-71
2022/04/10 15:37:40;;;;;;;8.23;4.23;;;12.20;85.60;;;;;;10223635;28;20721;-72
2022/04/10 15:42:41;;;;;;;5.07;3.23;;;12.50;84.00;;;;;;10227788;28;20247;-71
2022/04/10 15:47:41;;;;;;;6.57;3.30;;;12.70;83.50;;;;;;10221234;28;20235;-70
2022/04/10 15:52:43;;;;;;;5.57;3.60;;;12.80;81.40;;;;;;10223466;28;20358;-70
2022/04/10 15:57:46;;;;;;;8.07;3.40;;;12.70;81.30;;;;;;10227793;28;20326;-70
2022/04/10 16:02:46;;;;;;;6.67;3.57;;;12.60;83.30;;;;;;10220041;28;20333;-72
2022/04/10 16:07:48;;;;;;;3.50;3.20;;;12.40;85.60;;;;;;10242467;28;20331;-71
2022/04/10 16:12:49;;;;;;;6.33;3.50;;;12.10;85.60;;;;;;10229023;28;20636;-72
2022/04/10 16:17:49;;;;;;;4.80;3.13;;;11.80;84.00;;;;;;10218005;28;20223;-71
2022/04/10 16:22:50;;;;;;;4.37;3.20;;;11.60;85.50;;;;;;10206913;28;20602;-72
2022/04/10 16:33:10;;;;;;;7.57;3.40;;;11.50;85.20;;;;;;10222784;28;20655;-72
2022/04/10 16:38:14;;;;;;;4.13;3.13;;;11.50;86.10;;;;;;10229534;28;20232;-76
2022/04/10 16:43:18;;;;;;;4.90;3.50;;;11.60;86.30;;;;;;10212106;28;20227;-73
2022/04/10 16:48:19;;;;;;;6.43;3.10;;;11.60;86.50;;;;;;10223852;28;20226;-72
2022/04/10 16:53:19;;;;;;;4.70;2.80;;;11.70;87.70;;;;;;10224847;28;20257;-72
2022/04/10 16:58:23;;;;;;;5.57;2.80;;;11.80;84.20;;;;;;10223455;28;20252;-73
2022/04/10 17:03:23;;;;;;;5.53;2.93;;;11.70;81.60;;;;;;10226374;28;20794;-72
2022/04/10 17:08:27;;;;;;;4.67;3.07;;;11.50;84.00;;;;;;10221920;28;20239;-72
2022/04/10 17:13:28;;;;;;;6.47;3.40;;;11.20;86.60;;;;;;10223167;28;20236;-73
2022/04/10 17:18:32;;;;;;;4.87;2.70;;;10.90;87.70;;;;;;10226286;28;20585;-72
2022/04/10 17:23:33;;;;;;;5.43;2.73;;;10.70;88.20;;;;;;10221142;28;20858;-71
2022/04/10 17:28:33;;;;;;;6.10;2.50;;;10.50;89.80;;;;;;10224682;28;20716;-72
2022/04/10 17:33:37;;;;;;;5.33;3.40;;;10.40;90.40;;;;;;10221631;28;20243;-72
2022/04/10 17:38:37;;;;;;;8.27;3.30;;;10.40;91.10;;;;;;10228722;28;20233;-73
2022/04/10 17:43:38;;;;;;;4.00;2.97;;;10.30;91.80;;;;;;10225938;28;20218;-73
2022/04/10 17:48:38;;;;;;;5.33;3.20;;;10.30;92.30;;;;;;10219743;28;20230;-71
2022/04/10 17:53:39;;;;;;;6.43;3.33;;;10.20;92.40;;;;;;10228588;28;20226;-73
2022/04/10 17:58:40;;;;;;;5.97;3.60;;;10.10;93.20;;;;;;10227681;28;20280;-72
2022/04/10 18:03:41;;;;;;;5.63;3.47;;;10.00;93.10;;;;;;10232062;28;20287;-72
2022/04/10 18:08:42;;;;;;;5.50;3.10;;;10.00;93.40;;;;;;10216454;29;20239;-72
2022/04/10 18:13:43;;;;;;;4.03;3.37;;;9.90;93.50;;;;;;10216020;28;20338;-72
2022/04/10 18:18:44;;;;;;;5.80;3.40;;;9.90;94.30;;;;;;10249001;28;20581;-72
2022/04/10 18:23:44;;;;;;;7.30;3.10;;;9.80;94.70;;;;;;10220141;28;20234;-74
2022/04/10 18:28:46;;;;;;;6.67;3.20;;;9.70;95.10;;;;;;10224241;28;20235;-72
2022/04/10 18:33:46;;;;;;;8.57;3.40;;;9.70;95.20;;;;;;10225476;28;20238;-73
2022/04/10 18:38:47;;;;;;;6.40;2.97;;;9.60;95.50;;;;;;10233286;28;20242;-73
2022/04/10 18:43:50;;;;;;;5.40;3.20;;;9.50;96.00;;;;;;10212794;28;20720;-73
2022/04/10 18:54:10;;;;;;;4.30;3.03;;;9.30;96.40;;;;;;10228296;28;20191;-73
2022/04/10 18:59:10;;;;;;;7.73;4.20;;;9.20;96.60;;;;;;10220112;29;20273;-73
2022/04/10 19:04:11;;;;;;;6.53;3.73;;;9.20;97.00;;;;;;10227270;28;20216;-73
2022/04/10 19:09:12;;;;;;;6.80;4.13;;;9.10;97.20;;;;;;10229415;28;20221;-72
2022/04/10 19:14:13;;;;;;;7.10;4.07;;;8.90;98.00;;;;;;10227084;28;20221;-72
2022/04/10 19:19:13;;;;;;;5.63;3.80;;;8.70;98.20;;;;;;10232163;29;20197;-72
2022/04/10 19:24:14;;;;;;;6.03;3.40;;;8.60;99.00;;;;;;10223801;29;20304;-75
2022/04/10 19:29:21;;;;;;;8.00;3.77;;;8.40;99.60;;;;;;10238133;28;20220;-75
2022/04/10 19:34:27;;;;;;;4.77;3.50;;;8.30;99.90;;;;;;10224530;28;20186;-74
2022/04/10 19:39:33;;;;;;;4.43;3.20;;;8.10;99.90;;;;;;10228629;29;20193;-75
2022/04/10 19:44:34;;;;;;;9.30;6.17;;;8.00;99.90;;;;;;10234812;28;20217;-74
2022/04/10 19:49:50;;;;;;;6.83;4.13;;;7.90;99.90;;;;;;10224818;28;20237;-75
2022/04/10 19:54:51;;;;;;;5.67;3.97;;;7.70;99.90;;;;;;10242505;28;20692;-76
2022/04/10 20:12:05;;;;;;;8.23;5.60;;;7.40;99.90;;;;;;10218013;28;20245;-77
2022/04/10 20:17:34;;;;;;;;;;;;;;;;;;;;;
2022/04/10 20:22:42;;;;;;;8.57;6.13;;;7.30;99.90;;;;;;10154125;23;20241;-77
2022/04/10 20:27:45;;;;;;;12.63;8.97;;;7.20;99.90;;;;;;10168542;29;20316;-75
2022/04/10 20:32:49;;;;;;;10.30;7.10;;;7.20;99.90;;;;;;10166291;29;20887;-76
2022/04/10 20:37:52;;;;;;;7.83;5.37;;;7.10;99.90;;;;;;10167024;29;20240;-75
2022/04/10 20:43:04;;;;;;;10.30;8.00;;;7.10;99.90;;;;;;10167204;29;20204;-74
2022/04/10 20:48:12;;;;;;;8.33;5.67;;;7.00;99.90;;;;;;10173662;29;20201;-77
2022/04/10 20:53:19;;;;;;;8.10;5.23;;;7.00;99.90;;;;;;10167317;29;21162;-75
2022/04/10 20:58:19;;;;;;;7.97;5.53;;;6.90;99.90;;;;;;10158735;29;20283;-75
2022/04/10 21:03:20;;;;;;;9.13;5.60;;;6.90;99.90;;;;;;10166694;29;20328;-75
2022/04/10 21:08:24;;;;;;;12.37;7.63;;;6.80;99.90;;;;;;10169862;29;20268;-75
2022/04/10 21:13:28;;;;;;;21.57;12.53;;;6.80;99.90;;;;;;10172619;29;20307;-75
2022/04/10 21:18:31;;;;;;;6.63;4.50;;;6.70;99.90;;;;;;10166434;28;20204;-74
2022/04/10 21:23:32;;;;;;;7.80;4.53;;;6.70;99.90;;;;;;10166978;29;20208;-77
2022/04/10 21:28:38;;;;;;;13.13;8.83;;;6.70;99.90;;;;;;10166756;29;20537;-75
2022/04/10 21:33:42;;;;;;;9.67;6.50;;;6.60;99.90;;;;;;10167096;29;20225;-76
2022/04/10 21:38:43;;;;;;;11.00;6.57;;;6.50;99.90;;;;;;10164696;29;20552;-74
2022/04/10 21:43:44;;;;;;;10.07;6.03;;;6.40;99.90;;;;;;10154998;29;20283;-75
2022/04/10 21:48:50;;;;;;;8.23;5.70;;;6.30;99.90;;;;;;10165161;29;20191;-74
2022/04/10 21:53:50;;;;;;;9.63;5.40;;;6.20;99.90;;;;;;10165268;29;20217;-73
2022/04/10 21:58:52;;;;;;;9.33;4.67;;;6.10;99.90;;;;;;10164837;29;20219;-75
2022/04/10 22:03:52;;;;;;;8.13;4.40;;;6.10;99.90;;;;;;10172511;29;20195;-74
2022/04/10 22:08:53;;;;;;;7.27;4.00;;;6.10;99.90;;;;;;10165232;29;20259;-74
2022/04/10 22:13:54;;;;;;;6.10;4.40;;;6.10;99.90;;;;;;10163820;29;20218;-74
2022/04/10 22:18:54;;;;;;;7.33;4.60;;;6.00;99.90;;;;;;10158812;29;20186;-74
2022/04/10 22:23:55;;;;;;;8.00;4.50;;;6.00;99.90;;;;;;10167847;29;20207;-73
2022/04/10 22:28:56;;;;;;;7.77;5.67;;;5.90;99.90;;;;;;10174411;29;20291;-73
2022/04/10 22:33:56;;;;;;;7.27;5.40;;;5.90;99.90;;;;;;10170623;29;20213;-73
2022/04/10 22:38:57;;;;;;;9.50;5.73;;;5.80;99.90;;;;;;10173104;29;20655;-74
2022/04/10 22:43:57;;;;;;;7.23;5.07;;;5.70;99.90;;;;;;10170946;29;20193;-75
2022/04/10 22:48:58;;;;;;;10.60;6.57;;;5.70;99.90;;;;;;10169677;29;20196;-73
2022/04/10 22:53:59;;;;;;;7.67;4.87;;;5.60;99.90;;;;;;10168376;29;20264;-73
2022/04/10 22:58:59;;;;;;;8.37;5.27;;;5.60;99.90;;;;;;10169452;29;20289;-71
2022/04/10 23:04:00;;;;;;;7.70;5.53;;;5.60;99.90;;;;;;10168963;29;20680;-72
2022/04/10 23:09:00;;;;;;;8.83;5.63;;;5.50;99.90;;;;;;10169619;29;20189;-72
2022/04/10 23:14:01;;;;;;;7.10;5.33;;;5.50;99.90;;;;;;10169800;29;20196;-71
2022/04/10 23:19:01;;;;;;;8.10;5.73;;;5.50;99.90;;;;;;10169357;29;20190;-75
2022/04/10 23:24:03;;;;;;;7.63;5.23;;;5.40;99.90;;;;;;10168249;29;20202;-73
2022/04/10 23:29:04;;;;;;;8.37;5.23;;;5.40;99.90;;;;;;10168784;29;20267;-72
2022/04/10 23:34:07;;;;;;;13.83;7.10;;;5.30;99.90;;;;;;10177117;29;20342;-72
2022/04/10 23:39:08;;;;;;;9.60;7.20;;;5.20;99.90;;;;;;10169715;29;20558;-73
2022/04/10 23:44:08;;;;;;;7.40;6.13;;;5.10;99.90;;;;;;10168376;29;20196;-73
2022/04/10 23:49:09;;;;;;;9.93;5.83;;;5.00;99.90;;;;;;10167503;28;20284;-73
2022/04/10 23:54:09;;;;;;;7.93;5.97;;;4.80;99.90;;;;;;10169302;29;20183;-73
2022/04/10 23:59:10;;;;;;;8.23;5.97;;;4.70;99.90;;;;;;10169367;29;20186;-72
